This is the latest recevied weather packets stored in our database for station/object HA5KDQ-10. If no packets are shown the sender has not sent any weather packets the latest 10 day(s).
| Time | Temp. | Humidity | Pressure | Rain* | Wind** | Luminosity | Snow |
|---|---|---|---|---|---|---|---|
| 1778306957 | 23.89° C | 35% | 961.6 hPa | - | - | - | - |
| 1778303356 | 20° C | 39% | 961.3 hPa | - | - | - | - |
| 1778299755 | 16.67° C | 42% | 961.3 hPa | - | - | - | - |
| 1778296154 | 15.56° C | 43% | 961.1 hPa | - | - | - | - |
| 1778292554 | 16.11° C | 41% | 961 hPa | - | - | - | - |
| 1778288953 | 16.67° C | 40% | 961.1 hPa | - | - | - | - |
| 1778285352 | 16.67° C | 40% | 961.1 hPa | - | - | - | - |
| 1778281751 | 16.67° C | 40% | 961.3 hPa | - | - | - | - |
| 1778278150 | 17.78° C | 39% | 961.4 hPa | - | - | - | - |
| 1778274549 | 17.78° C | 38% | 961.2 hPa | - | - | - | - |
| 1778270948 | 17.78° C | 38% | 961.1 hPa | - | - | - | - |
| 1778267347 | 18.89° C | 36% | 960.5 hPa | - | - | - | - |
| 1778263765 | 19.44° C | 34% | 959.8 hPa | - | - | - | - |
| 1778260164 | 22.22° C | 31% | 959.6 hPa | - | - | - | - |
| 1778256563 | 23.89° C | 29% | 959.6 hPa | - | - | - | - |
| 1778252962 | 25.56° C | 27% | 959.8 hPa | - | - | - | - |
| 1778249362 | 27.78° C | 26% | 960 hPa | - | - | - | - |
| 1778245761 | 28.33° C | 26% | 960.3 hPa | - | - | - | - |
| 1778242160 | 28.89° C | 27% | 960.6 hPa | - | - | - | - |
| 1778238559 | 27.22° C | 30% | 960.8 hPa | - | - | - | - |
| 1778234958 | 27.78° C | 29% | 961.1 hPa | - | - | - | - |
| 1778231357 | 27.22° C | 32% | 961 hPa | - | - | - | - |
| 1778227756 | 30° C | 30% | 960.8 hPa | - | - | - | - |
| 1778224155 | 28.89° C | 34% | 960.8 hPa | - | - | - | - |
| 1778220555 | 28.89° C | 41% | 960.5 hPa | - | - | - | - |
* Rain since midnight (hover to see other rain measurements)
** Current wind speed in m/s (hover to see current wind gust speed)